Time;durP1;ratioP1;P1;durP2;ratioP2;P2;SDS_P1;SDS_P2;PMS_P1;PMS_P2;Temp;Humidity;BMP_temperature;BMP_pressure;BME280_temperature;BME280_humidity;BME280_pressure;Samples;Min_cycle;Max_cycle;Signal;HPM_P1;HPM_P2
2022/10/16 00:01:35;;;;;;;7.88;4.32;;;17.50;96.70;;;;;;5082563;28;20493;-70
2022/10/16 00:04:03;;;;;;;6.40;4.78;;;17.40;96.70;;;;;;5083562;28;20048;-71
2022/10/16 00:06:31;;;;;;;5.93;4.57;;;17.40;96.70;;;;;;5080699;28;20044;-71
2022/10/16 00:09:00;;;;;;;5.38;4.50;;;17.40;96.70;;;;;;5081487;28;20048;-71
2022/10/16 00:11:36;;;;;;;8.88;4.95;;;17.40;96.70;;;;;;5081768;28;20036;-71
2022/10/16 00:14:06;;;;;;;7.63;4.70;;;17.40;96.70;;;;;;5083907;28;20062;-71
2022/10/16 00:16:36;;;;;;;6.22;4.68;;;17.40;96.70;;;;;;5079730;28;20518;-71
2022/10/16 00:19:05;;;;;;;8.38;5.00;;;17.40;96.70;;;;;;5081719;28;20060;-71
2022/10/16 00:21:33;;;;;;;6.57;4.40;;;17.40;96.70;;;;;;5079720;28;20044;-71
2022/10/16 00:24:04;;;;;;;6.53;4.75;;;17.40;96.70;;;;;;5082021;28;20115;-70
2022/10/16 00:26:34;;;;;;;7.03;5.13;;;17.40;96.70;;;;;;5081502;28;20052;-71
2022/10/16 00:29:03;;;;;;;7.95;4.65;;;17.40;96.70;;;;;;5082307;28;20151;-71
2022/10/16 00:31:31;;;;;;;8.55;4.75;;;17.30;96.70;;;;;;5080617;28;20044;-70
2022/10/16 00:34:00;;;;;;;8.00;4.40;;;17.30;96.70;;;;;;5082728;28;20044;-70
2022/10/16 00:36:28;;;;;;;6.22;4.45;;;17.30;96.70;;;;;;5082783;28;20474;-71
2022/10/16 00:38:59;;;;;;;7.47;4.68;;;17.20;96.70;;;;;;5083306;28;20047;-71
2022/10/16 00:41:33;;;;;;;9.93;4.60;;;17.20;96.70;;;;;;5081272;28;20044;-70
2022/10/16 00:44:04;;;;;;;8.07;4.57;;;17.20;96.70;;;;;;5083661;28;20109;-71
2022/10/16 00:46:35;;;;;;;6.00;4.47;;;17.10;96.70;;;;;;5081283;28;20518;-71
2022/10/16 00:49:14;;;;;;;6.45;3.90;;;17.10;96.70;;;;;;5081281;28;20433;-71
2022/10/16 00:51:45;;;;;;;6.32;4.05;;;17.10;96.70;;;;;;5075834;28;20105;-71
2022/10/16 00:54:16;;;;;;;7.28;4.18;;;17.20;96.70;;;;;;5082580;28;20055;-70
2022/10/16 00:56:46;;;;;;;7.22;4.70;;;17.30;96.70;;;;;;5083255;28;20072;-71
2022/10/16 00:59:17;;;;;;;8.88;4.20;;;17.20;96.70;;;;;;5080930;28;20040;-70
2022/10/16 01:01:46;;;;;;;6.88;4.00;;;17.20;96.70;;;;;;5083863;28;20040;-71
2022/10/16 01:04:14;;;;;;;6.57;4.50;;;17.20;96.70;;;;;;5080049;28;20046;-71
2022/10/16 01:06:50;;;;;;;6.05;4.55;;;17.20;96.70;;;;;;5081472;28;20644;-71
2022/10/16 01:09:21;;;;;;;;;;;17.10;96.70;;;;;;5081488;28;20579;-71
2022/10/16 01:12:00;;;;;;;4.57;3.85;;;17.10;96.70;;;;;;5083704;28;21326;-71
2022/10/16 01:14:36;;;;;;;7.05;4.22;;;17.10;96.70;;;;;;5086683;28;20044;-70
2022/10/16 01:17:11;;;;;;;5.40;3.70;;;17.00;96.70;;;;;;5087339;28;20432;-71
2022/10/16 01:19:51;;;;;;;7.28;3.88;;;17.10;96.70;;;;;;5085170;28;20065;-71
2022/10/16 01:22:23;;;;;;;7.50;4.00;;;17.00;96.70;;;;;;5087176;28;20080;-71
2022/10/16 01:24:54;;;;;;;5.50;4.07;;;17.00;96.70;;;;;;5086645;28;20131;-71
2022/10/16 01:27:26;;;;;;;6.72;4.15;;;17.10;96.70;;;;;;5083694;28;20071;-72
2022/10/16 01:30:01;;;;;;;7.43;4.38;;;17.00;96.70;;;;;;5087025;28;20497;-72
2022/10/16 01:32:35;;;;;;;5.55;4.00;;;17.00;96.70;;;;;;5085386;28;20044;-72
2022/10/16 01:35:08;;;;;;;4.50;3.85;;;16.90;96.70;;;;;;5112190;27;20059;-72
2022/10/16 01:37:42;;;;;;;13.43;4.40;;;16.90;96.70;;;;;;5085806;28;20817;-73
2022/10/16 01:40:12;;;;;;;6.50;4.00;;;17.00;96.70;;;;;;5083599;28;20048;-72
2022/10/16 01:42:46;;;;;;;5.70;4.13;;;17.00;96.70;;;;;;5086474;28;20559;-72
2022/10/16 01:45:17;;;;;;;6.85;4.35;;;16.90;96.70;;;;;;5086325;28;20076;-72
2022/10/16 01:47:47;;;;;;;6.65;4.07;;;16.90;96.70;;;;;;5085536;28;20358;-72
2022/10/16 01:50:17;;;;;;;7.05;4.75;;;16.80;96.70;;;;;;5086389;28;20044;-72
2022/10/16 01:52:49;;;;;;;7.47;5.50;;;16.80;96.70;;;;;;5084871;28;20048;-73
2022/10/16 01:55:23;;;;;;;7.07;5.68;;;16.70;96.70;;;;;;5087452;28;20036;-73
2022/10/16 01:57:55;;;;;;;6.47;5.57;;;16.80;96.70;;;;;;5068430;28;20139;-73
2022/10/16 02:00:23;;;;;;;9.00;6.47;;;16.80;96.70;;;;;;5083184;28;20579;-72
2022/10/16 02:02:55;;;;;;;11.07;7.45;;;16.80;96.70;;;;;;5082948;28;20044;-72
2022/10/16 02:05:28;;;;;;;12.70;7.43;;;16.80;96.70;;;;;;5083133;28;20044;-72
2022/10/16 02:07:56;;;;;;;14.50;7.85;;;16.70;96.70;;;;;;5081051;28;20053;-73
2022/10/16 02:10:30;;;;;;;11.02;8.25;;;16.70;96.70;;;;;;5079364;28;20052;-73
2022/10/16 02:13:06;;;;;;;11.88;8.00;;;16.80;96.70;;;;;;5081426;28;20047;-72
2022/10/16 02:15:33;;;;;;;10.57;8.20;;;16.80;96.70;;;;;;5082131;28;20047;-72
2022/10/16 02:18:03;;;;;;;11.27;7.53;;;16.70;96.70;;;;;;5086213;28;20055;-72
2022/10/16 02:20:36;;;;;;;10.82;8.27;;;16.70;96.70;;;;;;5078103;28;20124;-72
2022/10/16 02:23:06;;;;;;;9.48;7.95;;;16.70;96.70;;;;;;5082806;28;20049;-72
2022/10/16 02:25:37;;;;;;;12.00;7.80;;;16.60;96.70;;;;;;5084464;28;20585;-72
2022/10/16 02:28:13;;;;;;;10.07;7.82;;;16.70;96.70;;;;;;5084609;28;20139;-73
2022/10/16 02:30:44;;;;;;;10.77;7.67;;;16.70;96.70;;;;;;5084976;28;20043;-73
2022/10/16 02:33:14;;;;;;;8.98;7.45;;;16.70;96.70;;;;;;5084284;28;20846;-72
2022/10/16 02:35:43;;;;;;;8.27;7.13;;;16.70;96.70;;;;;;5078247;28;20510;-72
2022/10/16 02:38:12;;;;;;;9.52;7.03;;;16.70;96.70;;;;;;5083778;28;20044;-73
2022/10/16 02:40:40;;;;;;;8.63;7.18;;;16.70;96.70;;;;;;5085342;28;20044;-73
2022/10/16 02:43:10;;;;;;;8.27;7.00;;;16.70;96.70;;;;;;5085117;28;20098;-72
2022/10/16 02:45:38;;;;;;;6.97;6.28;;;16.70;96.70;;;;;;5066673;28;20266;-73
2022/10/16 02:48:06;;;;;;;10.48;7.25;;;16.70;96.70;;;;;;5084746;28;20090;-73
2022/10/16 02:50:34;;;;;;;8.73;6.60;;;16.70;96.70;;;;;;5080940;28;20086;-72
2022/10/16 02:53:02;;;;;;;8.10;6.63;;;16.80;96.70;;;;;;5084710;28;20489;-73
2022/10/16 02:55:30;;;;;;;7.35;6.47;;;16.80;96.70;;;;;;5080800;28;20056;-72
2022/10/16 02:57:58;;;;;;;6.07;5.47;;;16.80;96.70;;;;;;5083171;28;20054;-72
2022/10/16 03:00:28;;;;;;;8.65;5.43;;;16.80;96.70;;;;;;5081706;28;20119;-72
2022/10/16 03:02:56;;;;;;;6.38;4.90;;;16.80;96.70;;;;;;5083157;28;20044;-72
2022/10/16 03:05:23;;;;;;;4.45;4.05;;;16.90;96.70;;;;;;5079883;28;20102;-73
2022/10/16 03:07:52;;;;;;;6.43;4.22;;;16.80;96.70;;;;;;5082228;28;20044;-73
2022/10/16 03:10:20;;;;;;;4.40;4.00;;;16.80;96.70;;;;;;5085056;28;20113;-72
2022/10/16 03:12:48;;;;;;;4.68;4.18;;;16.80;96.70;;;;;;5084587;28;20043;-72
2022/10/16 03:15:15;;;;;;;4.45;4.00;;;16.80;96.70;;;;;;5084286;28;20074;-73
2022/10/16 03:17:45;;;;;;;4.15;3.38;;;16.90;96.70;;;;;;5084293;28;20048;-72
2022/10/16 03:20:13;;;;;;;5.40;4.00;;;16.80;96.70;;;;;;5084823;28;20051;-72
2022/10/16 03:22:40;;;;;;;4.13;3.67;;;16.80;96.70;;;;;;5084231;28;20090;-72
2022/10/16 03:25:08;;;;;;;4.35;3.65;;;16.90;96.70;;;;;;5083774;28;20029;-73
2022/10/16 03:27:36;;;;;;;4.18;3.47;;;16.90;96.70;;;;;;5080906;28;20497;-72
2022/10/16 03:30:05;;;;;;;4.10;3.70;;;16.80;96.70;;;;;;5084232;28;20097;-72
2022/10/16 03:32:33;;;;;;;4.72;3.80;;;16.80;96.70;;;;;;5081242;28;20047;-72
2022/10/16 03:35:04;;;;;;;4.30;3.70;;;16.90;96.70;;;;;;5098990;28;20397;-71
2022/10/16 03:37:32;;;;;;;4.85;3.78;;;16.90;96.70;;;;;;5077291;28;20124;-71
2022/10/16 03:39:59;;;;;;;5.05;3.90;;;16.90;96.70;;;;;;5073385;28;20045;-71
2022/10/16 03:42:27;;;;;;;6.97;4.15;;;17.00;96.70;;;;;;5083014;28;20543;-71
2022/10/16 03:44:55;;;;;;;5.03;4.32;;;17.00;96.70;;;;;;5083928;28;20044;-71
2022/10/16 03:47:23;;;;;;;6.75;4.20;;;17.00;96.70;;;;;;5081421;28;20036;-71
2022/10/16 03:49:52;;;;;;;6.57;4.80;;;16.90;96.70;;;;;;5083970;28;20082;-70
2022/10/16 03:52:21;;;;;;;6.18;4.45;;;17.00;96.70;;;;;;5076394;28;20042;-71
2022/10/16 03:54:49;;;;;;;6.60;4.22;;;17.00;96.70;;;;;;5083063;28;20044;-71
2022/10/16 03:57:17;;;;;;;6.75;4.40;;;17.00;96.70;;;;;;5108858;27;20051;-70
2022/10/16 03:59:45;;;;;;;5.43;3.70;;;17.00;96.70;;;;;;5077397;28;20417;-70
2022/10/16 04:02:13;;;;;;;6.72;4.30;;;17.00;96.70;;;;;;5084154;28;20040;-72
2022/10/16 04:04:41;;;;;;;6.75;4.45;;;17.00;96.70;;;;;;5082375;28;20155;-70
2022/10/16 04:07:09;;;;;;;6.07;4.25;;;16.90;96.70;;;;;;5083612;28;20563;-71
2022/10/16 04:09:39;;;;;;;7.47;4.93;;;16.90;96.70;;;;;;5080132;28;20507;-71
2022/10/16 04:12:07;;;;;;;6.93;3.92;;;16.90;96.70;;;;;;5084093;28;20101;-71
2022/10/16 04:14:35;;;;;;;6.25;4.50;;;16.80;96.70;;;;;;5080514;28;20085;-71
2022/10/16 04:17:03;;;;;;;6.72;4.55;;;16.90;96.70;;;;;;5076389;28;20075;-71
2022/10/16 04:19:31;;;;;;;4.35;3.72;;;16.90;96.70;;;;;;5080393;28;20056;-71
2022/10/16 04:21:58;;;;;;;9.07;4.20;;;16.90;96.70;;;;;;5082553;28;20595;-71
2022/10/16 04:24:26;;;;;;;6.65;4.28;;;16.90;96.70;;;;;;5081653;28;20110;-70
2022/10/16 04:26:56;;;;;;;4.80;4.20;;;16.90;96.70;;;;;;5080843;28;20048;-71
2022/10/16 04:29:24;;;;;;;4.75;3.95;;;16.90;96.70;;;;;;5082569;28;20039;-71
2022/10/16 04:31:52;;;;;;;5.50;4.20;;;16.90;96.70;;;;;;5083570;28;20051;-71
2022/10/16 04:34:20;;;;;;;4.57;4.07;;;16.90;96.70;;;;;;5082756;28;20032;-71
2022/10/16 04:36:49;;;;;;;4.28;3.88;;;16.80;96.70;;;;;;5082651;28;20437;-71
2022/10/16 04:39:17;;;;;;;4.60;4.00;;;16.90;96.70;;;;;;5076990;28;20048;-71
2022/10/16 04:41:45;;;;;;;5.55;3.78;;;16.80;96.70;;;;;;5083461;28;20060;-71
2022/10/16 04:44:14;;;;;;;5.32;4.47;;;16.80;96.70;;;;;;5082449;28;20077;-71
2022/10/16 04:46:44;;;;;;;5.85;3.75;;;16.80;96.70;;;;;;5090329;28;20451;-71
2022/10/16 04:49:12;;;;;;;6.53;5.22;;;16.80;96.70;;;;;;5088054;28;20048;-72
2022/10/16 04:51:40;;;;;;;4.47;3.85;;;16.80;96.70;;;;;;5071523;28;20630;-71
2022/10/16 04:54:09;;;;;;;7.22;4.72;;;16.80;96.70;;;;;;5068225;28;20137;-72
2022/10/16 04:56:42;;;;;;;4.00;3.60;;;16.90;96.70;;;;;;5089952;28;20048;-71
2022/10/16 04:59:10;;;;;;;4.93;4.13;;;16.90;96.70;;;;;;5085477;28;20505;-72
2022/10/16 05:01:40;;;;;;;8.13;4.60;;;16.90;96.70;;;;;;5088878;28;20089;-72
2022/10/16 05:04:08;;;;;;;5.85;4.07;;;16.80;96.70;;;;;;5087483;28;20047;-72
2022/10/16 05:06:38;;;;;;;7.00;3.92;;;16.80;96.70;;;;;;5089815;28;20047;-72
2022/10/16 05:09:06;;;;;;;4.60;3.75;;;16.80;96.70;;;;;;5089221;28;20039;-72
2022/10/16 05:11:34;;;;;;;7.18;4.53;;;16.70;96.70;;;;;;5089992;28;20481;-72
2022/10/16 05:14:02;;;;;;;6.00;4.55;;;16.60;96.70;;;;;;5088742;28;20036;-71
2022/10/16 05:16:31;;;;;;;5.72;4.43;;;16.30;96.70;;;;;;5089446;28;20051;-72
2022/10/16 05:19:00;;;;;;;6.82;4.50;;;16.10;96.70;;;;;;5089121;28;20051;-72
2022/10/16 05:21:48;;;;;;;8.00;4.70;;;16.40;96.70;;;;;;5089234;28;20393;-72
2022/10/16 05:24:17;;;;;;;5.35;4.20;;;16.40;96.70;;;;;;5087685;28;20100;-72
2022/10/16 05:26:45;;;;;;;6.88;4.68;;;16.50;96.70;;;;;;5087870;28;20476;-72
2022/10/16 05:29:13;;;;;;;5.18;4.35;;;16.60;96.70;;;;;;5089689;28;20044;-72
2022/10/16 05:31:41;;;;;;;6.55;4.20;;;16.60;96.70;;;;;;5089346;28;20311;-72
2022/10/16 05:34:15;;;;;;;6.63;4.55;;;16.60;96.70;;;;;;5084738;28;20037;-71
2022/10/16 05:36:45;;;;;;;5.20;3.88;;;16.60;96.70;;;;;;5085258;28;20048;-71
2022/10/16 05:39:15;;;;;;;7.68;4.22;;;16.60;96.70;;;;;;5088620;28;20071;-72
2022/10/16 05:41:43;;;;;;;5.57;3.90;;;16.60;96.70;;;;;;5086429;28;20048;-72
2022/10/16 05:44:11;;;;;;;6.85;4.90;;;16.60;96.70;;;;;;5089098;28;20036;-72
2022/10/16 05:46:39;;;;;;;5.28;4.25;;;16.70;96.70;;;;;;5087019;28;20131;-72
2022/10/16 05:49:08;;;;;;;4.82;3.90;;;16.70;96.70;;;;;;5089128;28;20047;-72
2022/10/16 05:51:38;;;;;;;5.13;4.57;;;16.70;96.70;;;;;;5086033;28;20052;-72
2022/10/16 05:54:06;;;;;;;4.70;4.10;;;16.70;96.70;;;;;;5084334;28;20037;-72
2022/10/16 05:56:34;;;;;;;7.75;4.28;;;16.80;96.70;;;;;;5086716;28;20144;-71
2022/10/16 05:59:04;;;;;;;4.57;3.88;;;16.80;96.70;;;;;;5086220;28;20511;-72
2022/10/16 06:01:32;;;;;;;7.50;4.25;;;16.80;96.70;;;;;;5082826;28;20046;-72
2022/10/16 06:04:01;;;;;;;6.00;4.95;;;16.90;96.70;;;;;;5083928;28;20134;-72
2022/10/16 06:06:30;;;;;;;9.93;4.30;;;16.90;96.70;;;;;;5084701;28;20085;-71
2022/10/16 06:09:00;;;;;;;6.93;4.82;;;16.90;96.70;;;;;;5085927;28;20378;-72
2022/10/16 06:11:30;;;;;;;8.02;4.97;;;17.00;96.70;;;;;;5085799;28;20067;-72
2022/10/16 06:14:02;;;;;;;8.18;5.05;;;17.00;96.70;;;;;;5079531;28;20044;-71
2022/10/16 06:16:30;;;;;;;7.53;4.88;;;17.10;96.70;;;;;;5066819;28;20990;-71
2022/10/16 06:18:59;;;;;;;6.28;4.35;;;17.10;96.70;;;;;;5084997;28;20087;-71
2022/10/16 06:21:29;;;;;;;5.78;4.60;;;17.10;96.70;;;;;;5082562;28;20521;-72
2022/10/16 06:23:59;;;;;;;6.57;5.22;;;17.10;96.70;;;;;;5084541;28;20052;-72
2022/10/16 06:26:29;;;;;;;8.77;5.28;;;17.20;96.70;;;;;;5084145;28;20525;-72
2022/10/16 06:28:59;;;;;;;4.65;4.13;;;17.20;96.70;;;;;;5066989;28;20525;-72
2022/10/16 06:31:30;;;;;;;6.55;4.05;;;17.20;96.70;;;;;;5081788;28;20060;-72
2022/10/16 06:33:58;;;;;;;5.85;4.45;;;17.30;96.70;;;;;;5082479;28;20066;-72
2022/10/16 06:36:32;;;;;;;6.38;4.43;;;17.30;96.70;;;;;;5078704;28;20055;-71
2022/10/16 06:39:01;;;;;;;7.05;4.50;;;17.40;96.70;;;;;;5084330;28;20040;-72
2022/10/16 06:41:34;;;;;;;6.38;4.72;;;17.40;96.70;;;;;;5086123;28;20043;-72
2022/10/16 06:44:14;;;;;;;5.50;4.80;;;17.40;96.70;;;;;;5084813;28;20059;-72
2022/10/16 06:46:43;;;;;;;5.90;4.55;;;17.40;96.70;;;;;;5084397;28;21128;-72
2022/10/16 06:49:10;;;;;;;6.20;4.07;;;17.50;96.70;;;;;;5084186;28;20500;-72
2022/10/16 06:51:40;;;;;;;5.50;4.30;;;17.50;96.70;;;;;;5078694;28;20478;-72
2022/10/16 06:54:11;;;;;;;6.38;5.00;;;17.50;96.70;;;;;;5083112;28;20060;-72
2022/10/16 06:56:39;;;;;;;6.75;4.68;;;17.50;96.70;;;;;;5083261;28;20075;-72
2022/10/16 06:59:08;;;;;;;5.40;4.72;;;17.60;96.70;;;;;;5084676;28;20132;-72
2022/10/16 07:01:36;;;;;;;9.13;4.68;;;17.60;96.70;;;;;;5085290;28;20036;-72
2022/10/16 07:04:04;;;;;;;6.85;4.43;;;17.60;96.70;;;;;;5084385;28;20046;-72
2022/10/16 07:06:33;;;;;;;7.88;4.78;;;17.70;96.70;;;;;;5085540;28;20043;-72
2022/10/16 07:09:07;;;;;;;6.05;4.30;;;17.80;96.70;;;;;;5083706;28;20048;-72
2022/10/16 07:11:37;;;;;;;7.43;5.03;;;17.80;96.70;;;;;;5082610;28;20044;-72
2022/10/16 07:14:11;;;;;;;6.22;5.00;;;17.90;96.70;;;;;;5082992;28;20040;-72
2022/10/16 07:16:39;;;;;;;6.38;4.78;;;18.00;96.70;;;;;;5094952;28;20048;-72
2022/10/16 07:19:08;;;;;;;6.22;4.97;;;18.10;96.70;;;;;;5108257;27;20056;-72
2022/10/16 07:21:36;;;;;;;6.88;5.35;;;18.10;96.70;;;;;;5083630;28;20409;-72
2022/10/16 07:24:06;;;;;;;9.48;6.60;;;18.10;96.70;;;;;;5077474;28;20051;-72
2022/10/16 07:26:38;;;;;;;13.18;9.05;;;18.20;96.70;;;;;;5082548;28;20044;-71
2022/10/16 07:29:11;;;;;;;14.25;8.88;;;18.20;96.70;;;;;;5084882;28;20048;-72
2022/10/16 07:31:39;;;;;;;12.57;9.55;;;18.30;96.70;;;;;;5082537;28;20090;-72
2022/10/16 07:34:07;;;;;;;13.95;9.93;;;18.30;96.70;;;;;;5084148;28;20067;-72
2022/10/16 07:36:36;;;;;;;16.77;11.32;;;18.40;96.70;;;;;;5081863;28;20167;-71
2022/10/16 07:39:04;;;;;;;14.82;11.55;;;18.50;96.70;;;;;;5082937;28;20623;-72
2022/10/16 07:41:53;;;;;;;15.60;11.52;;;18.50;96.70;;;;;;5082836;28;20062;-72
2022/10/16 07:44:21;;;;;;;20.80;14.18;;;18.60;96.70;;;;;;5099404;28;20036;-72
2022/10/16 07:46:49;;;;;;;16.25;12.07;;;18.60;96.70;;;;;;5084158;28;20062;-71
2022/10/16 07:49:17;;;;;;;18.55;12.50;;;18.60;96.70;;;;;;5084241;28;20047;-72
2022/10/16 07:51:44;;;;;;;16.30;12.32;;;18.70;96.70;;;;;;5082449;28;20079;-72
2022/10/16 07:54:12;;;;;;;16.20;11.60;;;18.70;96.70;;;;;;5099694;28;20048;-71
2022/10/16 07:56:40;;;;;;;17.15;10.88;;;18.80;96.70;;;;;;5083046;28;20043;-72
2022/10/16 07:59:12;;;;;;;14.35;10.63;;;18.80;96.70;;;;;;5079100;28;20051;-72
2022/10/16 08:01:51;;;;;;;11.65;8.93;;;19.00;96.70;;;;;;5095655;28;20146;-71
2022/10/16 08:04:19;;;;;;;9.93;7.82;;;19.10;96.70;;;;;;5082109;28;20093;-72
2022/10/16 08:06:47;;;;;;;14.13;8.35;;;19.20;96.70;;;;;;5081671;28;20044;-72
2022/10/16 08:09:15;;;;;;;8.95;6.20;;;19.30;96.70;;;;;;5093390;28;20133;-72
2022/10/16 08:11:43;;;;;;;8.02;5.93;;;19.40;96.70;;;;;;5065158;28;20106;-72
2022/10/16 08:14:12;;;;;;;7.63;5.95;;;19.50;96.70;;;;;;5081738;28;20413;-72
2022/10/16 08:16:40;;;;;;;8.90;5.93;;;19.60;96.70;;;;;;5081496;28;20098;-75
2022/10/16 08:19:08;;;;;;;10.43;6.90;;;19.70;96.70;;;;;;5077920;28;20070;-72
2022/10/16 08:21:36;;;;;;;8.35;7.43;;;19.70;96.70;;;;;;5081308;28;20043;-72
2022/10/16 08:24:04;;;;;;;11.23;8.60;;;19.80;96.70;;;;;;5082127;28;20063;-73
2022/10/16 08:26:32;;;;;;;12.07;10.70;;;19.80;96.70;;;;;;5081848;28;20449;-73
2022/10/16 08:29:00;;;;;;;19.88;14.63;;;19.70;96.70;;;;;;5080293;28;20040;-72
2022/10/16 08:31:29;;;;;;;16.42;12.88;;;19.70;96.70;;;;;;5082452;28;21007;-72
2022/10/16 08:33:57;;;;;;;15.48;13.18;;;19.80;96.70;;;;;;5075359;28;20052;-72
2022/10/16 08:36:25;;;;;;;13.02;11.60;;;19.90;96.70;;;;;;5081390;28;20086;-72
2022/10/16 08:38:54;;;;;;;10.75;9.65;;;19.90;96.70;;;;;;5082768;28;21528;-72
2022/10/16 08:42:01;;;;;;;9.48;7.70;;;19.90;96.70;;;;;;5072945;28;20044;-72
2022/10/16 08:45:01;;;;;;;8.63;6.72;;;20.00;96.70;;;;;;5075363;28;20089;-73
2022/10/16 08:47:43;;;;;;;11.45;7.38;;;20.00;96.70;;;;;;5079412;28;20045;-73
2022/10/16 08:50:13;;;;;;;12.88;8.30;;;20.00;96.70;;;;;;5081573;28;20501;-73
2022/10/16 08:52:44;;;;;;;9.90;7.68;;;20.10;96.70;;;;;;5081482;28;20044;-73
2022/10/16 08:55:28;;;;;;;8.52;6.65;;;20.10;96.70;;;;;;5082229;28;20093;-72
2022/10/16 08:57:56;;;;;;;11.57;7.65;;;20.20;96.70;;;;;;5078785;28;20046;-72
2022/10/16 09:00:26;;;;;;;10.68;8.18;;;20.20;96.70;;;;;;5082252;28;20119;-73
2022/10/16 09:03:03;;;;;;;11.35;8.02;;;20.20;96.70;;;;;;5074915;28;20028;-73
2022/10/16 09:06:00;;;;;;;11.05;6.68;;;20.30;96.70;;;;;;5081300;28;20519;-72
2022/10/16 09:08:39;;;;;;;9.57;6.53;;;20.50;96.70;;;;;;5078816;28;20154;-72
2022/10/16 09:11:14;;;;;;;7.70;5.63;;;20.50;96.70;;;;;;5080694;28;20425;-72
2022/10/16 09:13:54;;;;;;;8.00;5.78;;;20.70;96.70;;;;;;5081031;28;20040;-72
2022/10/16 09:16:28;;;;;;;8.10;6.20;;;20.80;96.70;;;;;;5083301;28;20052;-72
2022/10/16 09:19:05;;;;;;;12.20;6.18;;;20.90;96.70;;;;;;5078646;28;20142;-70
2022/10/16 09:21:37;;;;;;;7.68;5.80;;;21.00;96.70;;;;;;5077959;28;20051;-70
2022/10/16 09:24:11;;;;;;;9.23;6.43;;;21.10;96.70;;;;;;5078665;28;20078;-70
2022/10/16 09:26:39;;;;;;;6.82;5.35;;;21.20;96.70;;;;;;5095336;28;20566;-73
2022/10/16 09:29:11;;;;;;;8.60;5.68;;;21.20;96.70;;;;;;5083143;28;20079;-72
2022/10/16 09:31:39;;;;;;;7.93;5.20;;;21.40;96.70;;;;;;5081743;28;20147;-72
2022/10/16 09:34:24;;;;;;;9.13;5.68;;;21.50;96.70;;;;;;5111244;27;20051;-72
2022/10/16 09:36:52;;;;;;;8.98;5.50;;;21.50;96.70;;;;;;5081648;28;20077;-74
2022/10/16 09:39:20;;;;;;;9.60;6.28;;;21.60;96.70;;;;;;5086230;28;20448;-72
2022/10/16 09:41:48;;;;;;;10.02;5.97;;;21.80;96.70;;;;;;5082161;28;20093;-71
2022/10/16 09:44:22;;;;;;;9.88;5.95;;;21.90;96.70;;;;;;5083851;28;20494;-71
2022/10/16 09:47:01;;;;;;;8.52;5.40;;;21.90;96.70;;;;;;5084644;28;20044;-70
2022/10/16 09:49:31;;;;;;;8.70;6.22;;;21.90;96.70;;;;;;5085247;28;20072;-70
2022/10/16 09:52:06;;;;;;;9.60;5.45;;;21.90;96.70;;;;;;5085127;28;20434;-70
2022/10/16 09:54:34;;;;;;;6.40;5.75;;;22.00;96.70;;;;;;5085571;28;20040;-70
2022/10/16 09:57:06;;;;;;;7.80;6.60;;;22.20;96.70;;;;;;5085331;28;20408;-71
2022/10/16 09:59:45;;;;;;;7.25;5.95;;;22.30;96.70;;;;;;5080769;28;20535;-70
2022/10/16 10:02:15;;;;;;;7.25;5.38;;;22.30;96.70;;;;;;5082477;28;20398;-70
2022/10/16 10:04:50;;;;;;;9.18;5.65;;;22.30;96.70;;;;;;5085945;28;20091;-70
2022/10/16 10:07:23;;;;;;;8.85;5.80;;;22.40;96.70;;;;;;5083407;28;20484;-70
2022/10/16 10:09:52;;;;;;;7.80;5.50;;;22.50;96.70;;;;;;5084844;28;20854;-70
2022/10/16 10:12:23;;;;;;;7.93;5.82;;;22.70;96.70;;;;;;5085351;28;20122;-70
2022/10/16 10:14:56;;;;;;;9.02;6.00;;;22.80;96.70;;;;;;5085188;28;20050;-69
2022/10/16 10:17:26;;;;;;;9.10;5.80;;;22.90;96.70;;;;;;5083861;28;20070;-70
2022/10/16 10:19:58;;;;;;;9.38;5.47;;;23.00;96.70;;;;;;5082975;28;20063;-70
2022/10/16 10:22:30;;;;;;;10.57;5.07;;;23.00;96.70;;;;;;5084918;28;20044;-72
2022/10/16 10:25:12;;;;;;;7.90;5.25;;;23.00;96.70;;;;;;5083891;28;20469;-72
2022/10/16 10:27:50;;;;;;;7.28;4.78;;;23.10;96.70;;;;;;5082877;28;20040;-74
2022/10/16 10:30:22;;;;;;;7.45;5.88;;;23.20;96.70;;;;;;5083711;28;20040;-74
2022/10/16 10:33:07;;;;;;;6.28;5.15;;;23.30;96.70;;;;;;5085416;28;20044;-74
2022/10/16 10:35:45;;;;;;;7.95;5.18;;;23.30;96.70;;;;;;5084596;28;20283;-74
2022/10/16 10:38:27;;;;;;;8.98;5.13;;;23.40;96.70;;;;;;5082764;28;20097;-70
2022/10/16 10:41:09;;;;;;;8.52;5.22;;;23.40;96.70;;;;;;5083622;28;20086;-71
2022/10/16 10:43:50;;;;;;;8.00;4.97;;;23.30;96.70;;;;;;5080352;28;20052;-70
2022/10/16 10:46:29;;;;;;;7.18;4.78;;;23.40;96.70;;;;;;5084769;28;20075;-71
2022/10/16 10:49:27;;;;;;;8.18;4.88;;;23.50;96.70;;;;;;5083294;28;20497;-72
2022/10/16 10:52:08;;;;;;;14.57;10.95;;;23.50;96.70;;;;;;5081001;28;20093;-71
2022/10/16 10:54:42;;;;;;;8.23;5.50;;;23.50;96.70;;;;;;5082452;28;20094;-70
2022/10/16 10:57:18;;;;;;;11.05;6.20;;;23.70;96.70;;;;;;5080493;28;20147;-70
2022/10/16 11:00:00;;;;;;;;;;;23.80;96.70;;;;;;5084941;28;20139;-70
2022/10/16 11:02:36;;;;;;;6.60;4.47;;;23.80;96.70;;;;;;5097169;28;19924;-71
2022/10/16 11:05:39;;;;;;;7.03;4.32;;;23.90;96.70;;;;;;5083750;28;20127;-70
2022/10/16 11:08:15;;;;;;;6.95;3.53;;;24.10;96.70;;;;;;5021706;28;20040;-70
2022/10/16 11:10:51;;;;;;;5.78;4.43;;;24.30;96.70;;;;;;5071275;28;20099;-70
2022/10/16 11:13:27;;;;;;;8.48;4.25;;;24.30;96.70;;;;;;5084531;28;20071;-71
2022/10/16 11:15:59;;;;;;;7.53;4.00;;;24.30;96.70;;;;;;5076121;28;20067;-71
2022/10/16 11:18:33;;;;;;;5.65;4.57;;;24.20;96.70;;;;;;5081937;28;20063;-71
2022/10/16 11:21:05;;;;;;;5.00;3.50;;;24.30;96.70;;;;;;5083806;28;20573;-71
2022/10/16 11:23:42;;;;;;;6.28;3.40;;;24.50;96.70;;;;;;5082047;28;20064;-70
2022/10/16 11:26:13;;;;;;;;;;;24.60;96.70;;;;;;5085051;28;20040;-70
2022/10/16 11:28:45;;;;;;;4.35;3.15;;;24.70;96.70;;;;;;5081947;28;19985;-71
2022/10/16 11:31:19;;;;;;;3.85;2.85;;;24.80;96.70;;;;;;5082796;28;20101;-71
2022/10/16 11:33:53;;;;;;;5.22;3.10;;;24.70;96.70;;;;;;5083785;28;20050;-70
2022/10/16 11:36:26;;;;;;;4.15;2.90;;;24.80;96.70;;;;;;5083498;28;20032;-70
2022/10/16 11:39:05;;;;;;;5.93;2.85;;;24.80;96.70;;;;;;5098485;28;20059;-70
2022/10/16 11:41:36;;;;;;;4.88;2.88;;;24.90;96.70;;;;;;5076844;28;20055;-70
2022/10/16 11:44:19;;;;;;;4.45;3.00;;;25.00;96.70;;;;;;5084274;28;20044;-70
2022/10/16 11:46:52;;;;;;;4.28;2.60;;;25.10;96.70;;;;;;5083831;28;20151;-69
2022/10/16 11:49:41;;;;;;;3.55;2.53;;;25.10;96.70;;;;;;5083724;28;20052;-70
2022/10/16 11:52:16;;;;;;;4.05;2.35;;;25.10;96.70;;;;;;5083193;28;20032;-71
2022/10/16 11:54:50;;;;;;;5.03;2.90;;;25.20;96.70;;;;;;5075522;28;20605;-71
2022/10/16 11:57:21;;;;;;;4.20;2.38;;;25.30;96.70;;;;;;5082780;28;20088;-70
2022/10/16 11:59:55;;;;;;;5.00;2.85;;;25.30;96.70;;;;;;5064684;28;20092;-70
2022/10/16 12:02:48;;;;;;;6.22;2.63;;;25.40;96.70;;;;;;5082003;28;20054;-70
2022/10/16 12:05:23;;;;;;;3.78;2.50;;;25.30;96.70;;;;;;5077536;28;20490;-72
2022/10/16 12:08:02;;;;;;;4.18;3.00;;;25.40;96.70;;;;;;5081311;28;20059;-72
2022/10/16 12:10:36;;;;;;;3.05;2.72;;;25.40;96.70;;;;;;5083217;28;20581;-72
2022/10/16 12:13:05;;;;;;;4.97;3.20;;;25.40;96.70;;;;;;5082639;28;20048;-73
2022/10/16 12:15:34;;;;;;;4.07;2.50;;;25.40;96.70;;;;;;5076794;28;20129;-73
2022/10/16 12:18:24;;;;;;;3.45;2.30;;;25.40;96.70;;;;;;5081118;28;20058;-73
2022/10/16 12:21:06;;;;;;;4.50;2.70;;;25.30;96.70;;;;;;5076120;28;20146;-72
2022/10/16 12:23:38;;;;;;;5.60;3.58;;;25.30;96.70;;;;;;5077234;28;20116;-73
2022/10/16 12:26:08;;;;;;;3.67;2.30;;;25.30;96.70;;;;;;5078588;28;20044;-70
2022/10/16 12:28:37;;;;;;;4.50;2.35;;;25.30;96.70;;;;;;5083217;28;20044;-71
2022/10/16 12:31:08;;;;;;;4.05;2.17;;;25.40;96.70;;;;;;5080615;28;20707;-69
2022/10/16 12:33:39;;;;;;;5.15;2.50;;;25.40;96.70;;;;;;5080548;28;20052;-69
2022/10/16 12:36:14;;;;;;;3.40;2.05;;;25.40;96.70;;;;;;5082437;28;20482;-71
2022/10/16 12:38:48;;;;;;;4.40;2.70;;;25.40;96.70;;;;;;5081189;28;20082;-71
2022/10/16 12:41:27;;;;;;;2.90;2.28;;;25.50;96.70;;;;;;5083028;28;20047;-71
2022/10/16 12:43:56;;;;;;;4.30;2.20;;;25.60;96.70;;;;;;5077382;28;20528;-70
2022/10/16 12:46:36;;;;;;;5.20;2.40;;;25.70;96.70;;;;;;5095605;28;20039;-70
2022/10/16 12:49:29;;;;;;;4.03;2.50;;;25.70;96.70;;;;;;5082471;28;20051;-71
2022/10/16 12:51:57;;;;;;;4.93;2.50;;;25.70;96.70;;;;;;5082204;28;20040;-70
2022/10/16 12:54:30;;;;;;;3.08;2.30;;;25.80;96.70;;;;;;5082501;28;20036;-70
2022/10/16 12:57:22;;;;;;;4.63;2.30;;;25.70;96.70;;;;;;5075095;28;20056;-71
2022/10/16 12:59:59;;;;;;;4.75;2.47;;;25.80;96.70;;;;;;5079888;28;20131;-70
2022/10/16 13:03:01;;;;;;;4.07;2.00;;;25.90;96.70;;;;;;5083829;28;20513;-72
2022/10/16 13:05:42;;;;;;;4.13;2.67;;;26.00;96.70;;;;;;5078628;28;20526;-70
2022/10/16 13:08:29;;;;;;;5.50;2.70;;;26.00;96.70;;;;;;5084281;28;20454;-71
2022/10/16 13:11:02;;;;;;;;;;;26.00;96.70;;;;;;5087650;28;20044;-72